Data for 08/14/2017

Time Sea-Level Adjusted Pressure Absolute Pressure Temperature Relative Humidity Dew Point   
(mb) (inHg) (mb) (inHg) (C) (F) (%) (C) (F)
00:05 1017 30.03 846 24.98 15.8 60.5 67 9.7 49.5
00:10 1017 30.03 846 24.98 15.6 60.1 67 9.5 49.2
00:15 1017 30.03 846 24.98 15.6 60.1 66 9.4 48.9
00:20 1017 30.03 846 24.98 15.6 60 66 9.3 48.7
00:25 1016 30 846 24.98 15.5 59.9 65 9 48.3
00:30 1016 30 846 24.98 15.4 59.8 66 9.2 48.5
00:35 1016 30 846 24.98 15.3 59.5 67 9.3 48.7
00:40 1017 30.03 846 24.98 15 58.9 68 9.2 48.6
00:45 1016 30 846 24.98 14.9 58.8 68 9 48.3
00:50 1016 30 846 24.98 14.8 58.7 68 9.1 48.3
00:55 1016 30 846 24.98 14.7 58.4 69 9 48.2
01:00 1016 30 846 24.98 14.6 58.3 69 9 48.2
01:05 1016 30 846 24.98 14.5 58.2 69 9 48.2
01:10 1016 30 846 24.98 14.5 58.2 69 9 48.2
01:15 1016 30 846 24.98 14.4 57.9 70 9 48.3
01:20 1016 30 846 24.98 14.1 57.3 72 9.2 48.5
01:25 1016 30 845 24.95 13.8 56.9 73 9.1 48.3
01:30 1016 30 845 24.95 13.6 56.5 74 9.1 48.5
01:35 1016 30 845 24.95 13.4 56.2 75 9.1 48.4
01:40 1016 30 845 24.95 13.3 55.9 76 9.1 48.3
01:45 1016 30 845 24.95 13.2 55.8 75 8.9 48.1
01:50 1016 30 845 24.95 13.2 55.7 75 8.9 47.9
01:55 1016 30 845 24.95 13.2 55.7 75 8.9 48
02:00 1016 30 845 24.95 13.2 55.8 75 9 48.1
02:05 1016 30 845 24.95 13.1 55.5 76 8.9 48
02:10 1016 30 845 24.95 12.9 55.3 76 8.8 47.8
02:15 1016 30 845 24.95 12.8 55.1 76 8.7 47.7
02:20 1016 30 845 24.95 12.8 55.1 75 8.6 47.5
02:25 1016 30 845 24.95 12.8 55 75 8.5 47.3
02:30 1016 30 845 24.95 12.7 54.9 75 8.4 47.1
02:35 1016 30 845 24.95 12.7 54.8 74 8.3 46.9
02:40 1016 30 845 24.95 12.6 54.7 74 8.2 46.8
02:45 1016 30 845 24.95 12.7 54.8 74 8.2 46.8
02:50 1016 30 845 24.95 12.5 54.6 75 8.3 47
02:55 1016 30 845 24.95 12.4 54.2 76 8.2 46.8
03:00 1016 30 845 24.95 12.2 53.9 77 8.2 46.8
03:05 1016 30 845 24.95 12.1 53.7 77 8.2 46.7
03:10 1016 30 845 24.95 12.1 53.8 76 8.1 46.6
03:15 1016 30 845 24.95 12.3 54.1 76 8.1 46.6
03:20 1016 30 845 24.95 12.2 54 76 8.1 46.7
03:25 1016 30 845 24.95 12.2 53.9 76 8.1 46.6
03:30 1016 30 845 24.95 12.1 53.7 76 8 46.4
03:35 1016 30 845 24.95 12 53.7 76 8 46.4
03:40 1016 30 845 24.95 12.1 53.7 75 7.9 46.2
03:45 1016 30 845 24.95 12.2 53.9 74 7.8 46
03:50 1016 30 845 24.95 12.4 54.2 73 7.8 46
03:55 1016 30 845 24.95 12.5 54.4 73 7.8 46.1
04:00 1016 30 845 24.95 12.5 54.5 73 7.9 46.2
04:05 1016 30 845 24.95 12.6 54.6 73 8 46.3
04:10 1016 30 845 24.95 12.6 54.7 73 7.9 46.1
04:15 1016 30 845 24.95 12.8 55 72 7.8 46.1
04:20 1016 30 845 24.95 12.9 55.2 71 7.9 46.1
04:25 1016 30 845 24.95 13 55.4 71 7.9 46.2
04:30 1016 30 845 24.95 13 55.4 72 8 46.4
04:35 1016 30 845 24.95 12.9 55.2 72 8 46.4
04:40 1016 30 845 24.95 12.8 55.1 73 8.1 46.5
04:45 1016 30 845 24.95 12.8 55.1 73 8.2 46.8
04:50 1016 30 845 24.95 12.7 54.8 75 8.4 47.1
04:55 1016 30 845 24.95 12.4 54.3 76 8.2 46.8
05:00 1016 30 845 24.95 12.3 54.1 76 8.2 46.8
05:05 1016 30 845 24.95 12.3 54.1 76 8.2 46.8
05:10 1016 30 845 24.95 12.3 54.1 75 8.1 46.6
05:15 1016 30 845 24.95 12.4 54.3 75 8.2 46.7
05:20 1016 30 845 24.95 12.6 54.6 75 8.3 47
05:25 1016 30 845 24.95 12.7 54.8 76 8.6 47.6
05:30 1016 30 845 24.95 12.6 54.6 78 8.8 47.8
05:35 1016 30 845 24.95 12.4 54.4 78 8.7 47.7
05:40 1016 30 845 24.95 12.5 54.5 78 8.8 47.8
05:45 1016 30 845 24.95 12.6 54.6 78 8.9 48
05:50 1016 30 845 24.95 12.7 54.8 78 9 48.2
05:55 1016 30 845 24.95 12.7 54.9 79 9.2 48.5
06:00 1016 30 845 24.95 12.7 54.9 80 9.3 48.8
06:05 1016 30 845 24.95 12.7 54.9 80 9.4 48.9
06:10 1016 30 845 24.95 12.7 54.9 79 9.2 48.5
06:15 1016 30 845 24.95 12.7 54.9 80 9.3 48.8
06:20 1016 30 845 24.95 12.8 55 79 9.2 48.5
06:25 1016 30 845 24.95 12.7 54.9 79 9.2 48.5
06:30 1016 30 845 24.95 12.8 55 79 9.2 48.6
06:35 1016 30 845 24.95 12.8 55.1 78 9.2 48.5
06:40 1016 30 845 24.95 12.8 55.1 79 9.3 48.7
06:45 1016 30 845 24.95 12.8 55.1 79 9.3 48.7
06:50 1016 30 845 24.95 12.9 55.1 79 9.3 48.8
06:55 1016 30 845 24.95 12.8 55 79 9.3 48.7
07:00 1016 30 845 24.95 12.7 54.8 80 9.4 48.9
07:05 1016 30 845 24.95 12.6 54.7 81 9.5 49
07:10 1016 30 845 24.95 12.6 54.6 82 9.6 49.3
07:15 1016 30 845 24.95 12.5 54.4 82 9.6 49.2
07:20 1016 30 845 24.95 12.6 54.7 83 9.8 49.7
07:25 1016 30 846 24.98 12.7 54.8 83 9.9 49.8
07:30 1016 30 846 24.98 12.6 54.7 84 10 49.9
07:35 1016 30 846 24.98 12.3 54.2 86 10.1 50.1
07:40 1017 30.03 846 24.98 12.2 54 87 10.1 50.2
07:45 1017 30.03 846 24.98 12.3 54.1 87 10.2 50.3
07:50 1017 30.03 846 24.98 12.4 54.3 87 10.3 50.5
07:55 1017 30.03 846 24.98 12.5 54.4 88 10.5 50.9
08:00 1017 30.03 846 24.98 12.4 54.4 88 10.5 50.9
08:05 1017 30.03 846 24.98 12.4 54.4 87 10.4 50.7
08:10 1017 30.03 846 24.98 12.4 54.3 88 10.5 50.9
08:15 1017 30.03 846 24.98 12.3 54.2 88 10.3 50.6
08:20 1017 30.03 846 24.98 12.3 54.1 87 10.2 50.4
08:25 1017 30.03 846 24.98 12.2 54 88 10.2 50.4
08:30 1017 30.03 846 24.98 12.2 54 88 10.3 50.5
08:35 1017 30.03 846 24.98 12.2 54 88 10.2 50.4
08:40 1017 30.03 846 24.98 12.2 53.9 89 10.4 50.7
08:45 1017 30.03 846 24.98 12.1 53.8 89 10.4 50.7
08:50 1017 30.03 846 24.98 12.1 53.8 89 10.4 50.6
08:55 1017 30.03 846 24.98 12.2 53.9 88 10.2 50.4
09:00 1017 30.03 846 24.98 12.3 54.1 87 10.3 50.5
09:05 1017 30.03 846 24.98 12.4 54.3 87 10.3 50.6
09:10 1017 30.03 846 24.98 12.4 54.3 87 10.4 50.6
09:15 1017 30.03 846 24.98 12.3 54.2 88 10.5 50.9
09:20 1017 30.03 846 24.98 12.4 54.2 88 10.5 50.9
09:25 1017 30.03 846 24.98 12.4 54.3 89 10.6 51
09:30 1017 30.03 846 24.98 12.4 54.2 89 10.7 51.2
09:35 1017 30.03 846 24.98 12.3 54.2 89 10.7 51.2
09:40 1017 30.03 846 24.98 12.4 54.3 90 10.8 51.4
09:45 1017 30.03 846 24.98 12.5 54.4 90 10.8 51.5
09:50 1017 30.03 846 24.98 12.4 54.3 89 10.7 51.2
09:55 1017 30.03 846 24.98 12.4 54.3 89 10.7 51.3
10:00 1017 30.03 846 24.98 12.5 54.4 89 10.7 51.2
10:05 1017 30.03 846 24.98 12.5 54.5 87 10.5 50.8
10:10 1017 30.03 846 24.98 12.6 54.6 86 10.3 50.5
10:15 1017 30.03 846 24.98 12.5 54.6 86 10.2 50.4
10:20 1017 30.03 846 24.98 12.6 54.6 85 10.2 50.3
10:25 1017 30.03 846 24.98 12.7 54.9 85 10.2 50.4
10:30 1017 30.03 846 24.98 12.8 55.1 85 10.4 50.7
10:35 1017 30.03 846 24.98 13 55.3 83 10.2 50.3
10:40 1017 30.03 846 24.98 13.1 55.6 82 10.1 50.2
10:45 1017 30.03 846 24.98 13.2 55.8 83 10.4 50.8
10:50 1017 30.03 846 24.98 13.1 55.6 83 10.3 50.6
10:55 1017 30.03 847 25.01 13.2 55.7 84 10.5 51
11:00 1017 30.03 847 25.01 13.2 55.8 82 10.2 50.3
11:05 1017 30.03 847 25.01 13.2 55.7 82 10.2 50.4
11:10 1017 30.03 847 25.01 13.2 55.7 81 10.1 50.1
11:15 1017 30.03 847 25.01 13.2 55.8 81 10.1 50.2
11:20 1017 30.03 847 25.01 13.3 55.9 81 10.1 50.2
11:25 1017 30.03 847 25.01 13.4 56.2 80 10.1 50.1
11:30 1017 30.03 847 25.01 13.5 56.2 81 10.2 50.4
11:35 1017 30.03 847 25.01 13.4 56.1 84 10.7 51.3
11:40 1017 30.03 847 25.01 13.4 56.1 85 11 51.7
11:45 1017 30.03 847 25.01 13.5 56.3 83 10.8 51.4
11:50 1017 30.03 847 25.01 13.7 56.7 83 10.9 51.6
11:55 1017 30.03 847 25.01 14 57.2 81 10.8 51.5
12:00 1017 30.03 846 24.98 14.3 57.7 80 10.8 51.5
12:05 1017 30.03 847 25.01 14.2 57.5 76 10 50.1
12:10 1017 30.03 847 25.01 14.2 57.5 74 9.7 49.5
12:15 1017 30.03 847 25.01 14.3 57.7 76 10 50.1
12:20 1017 30.03 846 24.98 14.5 58 73 9.7 49.4
12:25 1017 30.03 846 24.98 14.6 58.4 70 9.3 48.7
12:30 1017 30.03 846 24.98 14.6 58.4 67 8.7 47.6
12:35 1017 30.03 846 24.98 14.7 58.4 64 8 46.4
12:40 1017 30.03 846 24.98 14.9 58.8 63 8 46.4
12:45 1017 30.03 846 24.98 15.1 59.1 63 8.1 46.6
12:50 1017 30.03 846 24.98 15 59.1 66 8.8 47.9
12:55 1017 30.03 846 24.98 14.9 58.8 65 8.4 47.2
13:00 1017 30.03 846 24.98 14.8 58.6 64 8 46.4
13:05 1017 30.03 846 24.98 14.9 58.8 66 8.6 47.4
13:10 1017 30.03 846 24.98 15.2 59.3 65 8.7 47.6
13:15 1017 30.03 846 24.98 15.2 59.4 63 8.3 47
13:20 1017 30.03 846 24.98 15.6 60.1 64 8.8 47.9
13:25 1017 30.03 846 24.98 15.5 59.9 62 8.4 47.2
13:30 1017 30.03 846 24.98 15.6 60.1 62 8.4 47.2
13:35 1017 30.03 846 24.98 15.8 60.4 61 8.5 47.2
13:40 1017 30.03 846 24.98 16.1 60.9 58 8 46.4
13:45 1017 30.03 846 24.98 17 62.5 48 5.9 42.6
13:50 1017 30.03 846 24.98 17.6 63.6 46 5.9 42.6
13:55 1017 30.03 846 24.98 18.2 64.7 39 4.2 39.6
14:00 1017 30.03 846 24.98 18.6 65.5 38 4.2 39.6
14:05 1017 30.03 846 24.98 19 66.2 37 4 39.2
14:10 1017 30.03 846 24.98 18.4 65.1 40 4.7 40.4
14:15 1016 30 846 24.98 18.7 65.6 39 4.7 40.5
14:20 1016 30 846 24.98 18.7 65.6 41 5.5 41.8
14:25 1016 30 846 24.98 18.5 65.3 37 3.6 38.4
14:30 1016 30 846 24.98 18.8 65.9 37 4.1 39.4
14:35 1016 30 846 24.98 19.1 66.5 35 3.3 38
14:40 1016 30 845 24.95 20 68 33 3.5 38.3
14:45 1016 30 845 24.95 20.1 68.1 35 4.2 39.6
14:50 1016 30 845 24.95 19.3 66.7 35 3.5 38.3
14:55 1016 30 845 24.95 19.7 67.5 32 2.6 36.6
15:00 1016 30 845 24.95 20.1 68.1 36 4.5 40.2
15:05 1016 30 845 24.95 19.4 66.9 36 3.9 39
15:10 1016 30 845 24.95 19.8 67.6 33 3.1 37.6
15:15 1016 30 845 24.95 19.8 67.7 33 3.1 37.6
15:20 1016 30 845 24.95 19.8 67.7 35 4 39.2
15:25 1016 30 845 24.95 19.8 67.7 35 4 39.2
15:30 1016 30 845 24.95 20 68 35 4.1 39.4
15:35 1016 30 845 24.95 20 68 33 3.5 38.3
15:40 1016 30 845 24.95 19.7 67.4 35 4.1 39.4
15:45 1015 29.97 845 24.95 19.8 67.7 34 3.5 38.3
15:50 1015 29.97 845 24.95 19.9 67.7 35 4 39.3
15:55 1015 29.97 844 24.92 19.5 67.2 36 4.2 39.5
16:00 1015 29.97 844 24.92 20.1 68.1 35 4.4 39.8
16:05 1015 29.97 844 24.92 20.5 69 34 4.2 39.6
16:10 1015 29.97 844 24.92 20.4 68.7 36 5.1 41.2
16:15 1015 29.97 844 24.92 20.1 68.2 37 5 41
16:20 1015 29.97 844 24.92 20.1 68.2 37 5.3 41.5
16:25 1015 29.97 844 24.92 19.9 67.8 36 4.7 40.4
16:30 1015 29.97 844 24.92 20.2 68.4 36 4.7 40.4
16:35 1015 29.97 844 24.92 20.9 69.6 34 4.6 40.2
16:40 1015 29.97 844 24.92 21.3 70.4 35 5.5 42
16:45 1015 29.97 844 24.92 21.2 70.2 34 5.1 41.2
16:50 1015 29.97 844 24.92 20.6 69 36 5.1 41.1
16:55 1015 29.97 844 24.92 20.7 69.2 37 5.5 41.8
17:00 1015 29.97 844 24.92 20.8 69.4 36 5.4 41.7
17:05 1015 29.97 844 24.92 20.4 68.7 36 5 41
17:10 1015 29.97 844 24.92 21.1 69.9 35 5.2 41.4
17:15 1015 29.97 844 24.92 21.3 70.3 35 5.3 41.6
17:20 1015 29.97 844 24.92 20.8 69.5 36 5.4 41.7
17:25 1015 29.97 844 24.92 20.6 69.1 37 5.5 41.9
17:30 1015 29.97 844 24.92 20.7 69.3 35 5.1 41.1
17:35 1014 29.94 844 24.92 21.2 70.2 34 4.8 40.6
17:40 1014 29.94 844 24.92 21.5 70.7 34 5.1 41.1
17:45 1014 29.94 844 24.92 21.3 70.4 34 5.1 41.2
17:50 1014 29.94 843 24.89 20.8 69.4 34 4.4 40
17:55 1014 29.94 843 24.89 20.7 69.3 35 4.7 40.5
18:00 1014 29.94 843 24.89 20.9 69.6 36 5.5 41.9
18:05 1014 29.94 843 24.89 20.7 69.2 35 5 41
18:10 1014 29.94 843 24.89 20.6 69.1 36 5.2 41.3
18:15 1014 29.94 843 24.89 20.3 68.6 38 5.5 41.9
18:20 1014 29.94 843 24.89 20.4 68.7 36 4.9 40.8
18:25 1014 29.94 843 24.89 20.5 68.8 35 4.5 40
18:30 1014 29.94 843 24.89 20.6 69.1 37 5.7 42.3
18:35 1014 29.94 843 24.89 20.6 69.2 37 5.6 42.1
18:40 1014 29.94 843 24.89 20.4 68.7 38 5.6 42.1
18:45 1014 29.94 843 24.89 20.4 68.6 37 5.4 41.7
18:50 1014 29.94 843 24.89 20.3 68.5 37 5.2 41.4
18:55 1014 29.94 843 24.89 20.2 68.4 36 4.9 40.7
19:00 1014 29.94 843 24.89 20.1 68.1 37 5.3 41.5
19:05 1014 29.94 843 24.89 19.9 67.8 39 5.8 42.4
19:10 1014 29.94 843 24.89 19.7 67.5 41 6.2 43.2
19:15 1014 29.94 843 24.89 19.6 67.3 42 6.5 43.7
19:20 1014 29.94 843 24.89 19.5 67.1 44 7 44.6
19:25 1014 29.94 843 24.89 19.4 66.8 45 7.4 45.2
19:30 1014 29.94 843 24.89 19.2 66.6 46 7.3 45.2
19:35 1014 29.94 843 24.89 19.2 66.5 46 7.3 45.2
19:40 1014 29.94 843 24.89 19.1 66.5 47 7.7 45.9
19:45 1014 29.94 843 24.89 19.2 66.5 46 7.2 45
19:50 1014 29.94 843 24.89 19.1 66.5 47 7.6 45.7
19:55 1014 29.94 843 24.89 19 66.2 48 8 46.3
20:00 1014 29.94 843 24.89 18.9 66 50 8.4 47.1
20:05 1014 29.94 843 24.89 18.9 65.9 50 8.4 47.2
20:10 1014 29.94 843 24.89 18.8 65.9 50 8.4 47.1
20:15 1014 29.94 843 24.89 18.8 65.8 52 8.7 47.7
20:20 1014 29.94 843 24.89 18.7 65.6 53 9 48.2
20:25 1014 29.94 843 24.89 18.5 65.2 55 9.5 49
20:30 1014 29.94 843 24.89 18.3 64.9 57 9.7 49.4
20:35 1014 29.94 843 24.89 18.2 64.7 58 9.8 49.6
20:40 1014 29.94 843 24.89 18 64.5 59 9.9 49.9
20:45 1014 29.94 843 24.89 17.9 64.2 59 9.9 49.8
20:50 1014 29.94 843 24.89 17.8 64.1 60 10 50.1
20:55 1014 29.94 844 24.92 17.8 64.1 60 10 50
21:00 1014 29.94 844 24.92 17.7 63.9 59 9.8 49.7
21:05 1014 29.94 844 24.92 17.6 63.8 61 10.2 50.4
21:10 1014 29.94 844 24.92 17.4 63.4 62 10.1 50.2
21:15 1014 29.94 844 24.92 17.3 63.2 63 10.2 50.4
21:20 1015 29.97 844 24.92 17.3 63.1 62 10 50.1
21:25 1015 29.97 844 24.92 17.3 63.1 59 9.3 48.7
21:30 1015 29.97 844 24.92 17.4 63.3 58 9 48.3
21:35 1015 29.97 844 24.92 17.4 63.3 56 8.6 47.5
21:40 1015 29.97 844 24.92 17.4 63.3 57 8.9 48
21:45 1015 29.97 844 24.92 17.3 63.1 57 8.7 47.6
21:50 1015 29.97 844 24.92 17.2 62.9 57 8.6 47.4
21:55 1015 29.97 844 24.92 17.1 62.7 58 8.8 47.9
22:00 1015 29.97 844 24.92 16.9 62.5 58 8.7 47.6
22:05 1015 29.97 844 24.92 16.9 62.3 58 8.8 47.8
22:10 1015 29.97 844 24.92 16.8 62.2 58 8.6 47.5
22:15 1015 29.97 844 24.92 16.7 62.1 58 8.6 47.5
22:20 1015 29.97 844 24.92 16.6 61.8 60 8.8 47.8
22:25 1015 29.97 844 24.92 16.5 61.7 60 8.8 47.9
22:30 1015 29.97 844 24.92 16.4 61.6 61 9 48.2
22:35 1015 29.97 844 24.92 16.2 61.2 63 9.2 48.5
22:40 1015 29.97 844 24.92 16.1 60.9 64 9.2 48.6
22:45 1015 29.97 844 24.92 15.9 60.6 64 9.3 48.7
22:50 1015 29.97 844 24.92 15.8 60.5 64 9.2 48.5
22:55 1015 29.97 844 24.92 15.8 60.4 65 9.2 48.5
23:00 1015 29.97 844 24.92 15.7 60.2 65 9.1 48.4
23:05 1015 29.97 844 24.92 15.6 60 66 9.2 48.6
23:10 1015 29.97 844 24.92 15.5 59.9 65 9.1 48.3
23:15 1015 29.97 844 24.92 15.4 59.8 65 8.9 48
23:20 1015 29.97 844 24.92 15.4 59.8 63 8.6 47.4
23:25 1015 29.97 844 24.92 15.6 60 62 8.4 47.1
23:30 1015 29.97 845 24.95 15.8 60.4 63 8.8 47.9
23:35 1016 30 845 24.95 15.8 60.5 66 9.6 49.2
23:40 1016 30 845 24.95 15.6 60.1 69 10 50
23:45 1016 30 845 24.95 15.6 60 72 10.5 50.9
23:50 1016 30 845 24.95 15.4 59.7 73 10.7 51.2
23:55 1016 30 845 24.95 15 59.1 70 9.7 49.5
24:00 1016 30 845 24.95 14.7 58.4 68 9 48.2